createdAt,value
2019-04-25T00:00:46.426Z,114.60
2019-04-25T00:03:13.759Z,158.72
2019-04-25T00:05:42.502Z,178.45
2019-04-25T00:08:11.462Z,133.47
2019-04-25T00:10:39.180Z,143.20
2019-04-25T00:13:06.766Z,157.82
2019-04-25T00:15:33.811Z,162.35
2019-04-25T00:18:02.361Z,261.00
2019-04-25T00:20:31.508Z,148.53
2019-04-25T00:23:01.918Z,116.45
2019-04-25T00:25:45.860Z,119.97
2019-04-25T00:28:12.019Z,112.40
2019-04-25T00:30:40.303Z,93.27
2019-04-25T00:33:11.552Z,80.45
2019-04-25T00:35:39.046Z,101.07
2019-04-25T00:38:06.279Z,135.95
2019-04-25T00:40:33.282Z,157.70
2019-04-25T00:43:01.566Z,121.00
2019-04-25T00:45:28.810Z,226.40
2019-04-25T00:47:55.949Z,157.18
2019-04-25T00:50:23.040Z,146.55
2019-04-25T00:52:51.938Z,168.87
2019-04-25T00:55:26.922Z,151.80
2019-04-25T00:57:51.587Z,120.05
2019-04-25T01:00:35.547Z,118.93
2019-04-25T01:03:05.227Z,190.20
2019-04-25T01:05:32.377Z,172.93
2019-04-25T01:08:02.029Z,165.12
2019-04-25T01:10:29.225Z,177.72
2019-04-25T01:12:57.243Z,146.98
2019-04-25T01:15:24.779Z,180.40
2019-04-25T01:17:52.615Z,171.07
2019-04-25T01:20:20.559Z,165.35
2019-04-25T01:22:47.644Z,137.25
2019-04-25T01:25:14.683Z,137.12
2019-04-25T01:27:43.241Z,123.07
2019-04-25T01:30:14.112Z,157.18
2019-04-25T01:32:41.299Z,132.63
2019-04-25T01:35:20.345Z,106.00
2019-04-25T01:37:54.805Z,132.43
2019-04-25T01:40:38.320Z,134.70
2019-04-25T01:43:15.888Z,102.60
2019-04-25T01:45:43.793Z,159.72
2019-04-25T01:48:11.211Z,95.83
2019-04-25T01:50:39.299Z,108.70
2019-04-25T01:53:06.455Z,133.12
2019-04-25T01:55:33.835Z,134.97
2019-04-25T01:58:01.018Z,111.42
2019-04-25T02:00:33.269Z,113.22
2019-04-25T02:03:00.685Z,100.80
2019-04-25T02:05:27.873Z,91.12
2019-04-25T02:07:55.791Z,105.12
2019-04-25T02:10:25.357Z,116.45
2019-04-25T02:12:55.253Z,101.25
2019-04-25T02:15:24.955Z,122.42
2019-04-25T02:17:55.450Z,95.42
2019-04-25T02:20:20.920Z,127.45
2019-04-25T02:22:48.063Z,91.50
2019-04-25T02:25:15.235Z,73.30
2019-04-25T02:27:43.761Z,104.25
2019-04-25T02:30:12.348Z,67.97
2019-04-25T02:32:39.669Z,68.83
2019-04-25T02:35:09.418Z,74.37
2019-04-25T02:37:36.844Z,85.65
2019-04-25T02:40:08.124Z,74.58
2019-04-25T02:42:35.313Z,69.05
2019-04-25T02:45:21.022Z,79.97
2019-04-25T02:47:57.756Z,77.95
2019-04-25T02:50:26.601Z,72.80
2019-04-25T02:52:57.431Z,72.75
2019-04-25T02:55:31.902Z,57.30
2019-04-25T02:57:54.287Z,69.62
2019-04-25T03:00:25.011Z,81.97
2019-04-25T03:02:54.580Z,102.67
2019-04-25T03:05:21.296Z,109.72
2019-04-25T03:07:48.417Z,96.87
2019-04-25T03:10:15.437Z,120.80
2019-04-25T03:12:44.657Z,97.42
2019-04-25T03:15:11.728Z,112.88
2019-04-25T03:17:38.819Z,98.92
2019-04-25T03:20:16.941Z,104.03
2019-04-25T03:22:44.810Z,102.97
2019-04-25T03:25:16.489Z,108.90
2019-04-25T03:27:40.758Z,119.60
2019-04-25T03:30:13.495Z,112.55
2019-04-25T03:32:38.800Z,131.72
2019-04-25T03:35:08.920Z,54.73
2019-04-25T03:37:36.175Z,128.30
2019-04-25T03:40:06.538Z,100.62
2019-04-25T03:42:33.947Z,101.92
2019-04-25T03:45:01.540Z,132.55
2019-04-25T03:47:30.488Z,131.37
2019-04-25T03:49:57.573Z,146.25
2019-04-25T03:52:24.625Z,131.50
2019-04-25T03:54:53.331Z,174.45
2019-04-25T03:57:20.525Z,177.65
2019-04-25T03:59:48.574Z,125.62
2019-04-25T04:02:16.583Z,271.37
2019-04-25T04:04:43.694Z,180.10
2019-04-25T04:07:11.375Z,126.97
2019-04-25T04:09:39.378Z,139.80
2019-04-25T04:12:06.548Z,236.30
2019-04-25T04:14:33.908Z,212.63
2019-04-25T04:17:14.447Z,142.93
2019-04-25T04:19:48.613Z,172.13
2019-04-25T04:24:54.509Z,157.88
2019-04-25T04:27:21.571Z,213.28
2019-04-25T04:29:48.617Z,123.33
2019-04-25T04:32:16.332Z,87.02
2019-04-25T04:34:45.473Z,92.37
2019-04-25T04:37:14.773Z,126.60
2019-04-25T04:39:41.626Z,98.15
2019-04-25T04:42:09.583Z,233.28
2019-04-25T04:44:36.749Z,205.90
2019-04-25T04:47:04.127Z,411.08
2019-04-25T04:49:31.214Z,353.98
2019-04-25T04:51:58.283Z,219.07
2019-04-25T04:54:25.317Z,267.98
2019-04-25T04:56:53.681Z,322.90
2019-04-25T04:59:20.769Z,211.85
2019-04-25T05:02:01.330Z,183.40
2019-04-25T05:04:46.712Z,106.92
2019-04-25T05:07:25.323Z,127.38
2019-04-25T05:09:53.475Z,82.75
2019-04-25T05:12:21.603Z,138.15
2019-04-25T05:14:48.825Z,70.65
2019-04-25T05:17:17.613Z,133.57
2019-04-25T05:19:44.766Z,100.22
2019-04-25T05:22:14.422Z,68.10
2019-04-25T05:24:40.708Z,49.38
2019-04-25T05:27:07.726Z,83.80
2019-04-25T05:29:35.807Z,93.22
2019-04-25T05:32:04.261Z,66.25
2019-04-25T05:34:31.508Z,75.70
2019-04-25T05:36:58.669Z,70.55
2019-04-25T05:39:26.773Z,61.42
2019-04-25T05:41:55.574Z,70.12
2019-04-25T05:44:24.509Z,66.47
2019-04-25T05:46:51.415Z,45.45
2019-04-25T05:49:19.095Z,43.25
2019-04-25T05:51:46.382Z,68.80
2019-04-25T05:54:14.109Z,40.08
2019-04-25T05:56:41.143Z,43.68
2019-04-25T05:59:08.228Z,58.00
2019-04-25T06:01:36.419Z,81.53
2019-04-25T06:04:05.407Z,69.82
2019-04-25T06:06:36.471Z,82.47
2019-04-25T06:09:20.049Z,77.03
2019-04-25T06:11:55.278Z,74.95
2019-04-25T06:14:24.016Z,90.42
2019-04-25T06:16:53.599Z,99.32
2019-04-25T06:19:41.453Z,94.20
2019-04-25T06:22:15.414Z,90.92
2019-04-25T06:24:44.484Z,97.25
2019-04-25T06:27:13.945Z,107.30
2019-04-25T06:29:57.419Z,115.35
2019-04-25T06:32:14.286Z,106.90
2019-04-25T06:34:41.520Z,125.50
2019-04-25T06:37:08.558Z,93.58
2019-04-25T06:39:37.431Z,113.30
2019-04-25T06:42:04.602Z,117.37
2019-04-25T06:44:49.673Z,124.85
2019-04-25T06:47:24.473Z,119.75
2019-04-25T06:49:53.161Z,146.20
2019-04-25T06:52:21.571Z,95.38
2019-04-25T06:54:49.889Z,100.05
2019-04-25T06:57:17.145Z,78.90
2019-04-25T06:59:44.294Z,82.47
2019-04-25T07:02:11.386Z,90.10
2019-04-25T07:04:38.506Z,85.72
2019-04-25T07:07:12.020Z,86.53
2019-04-25T07:09:35.025Z,78.90
2019-04-25T07:12:03.630Z,90.05
2019-04-25T07:14:31.663Z,90.80
2019-04-25T07:16:58.683Z,97.60
2019-04-25T07:19:26.779Z,73.12
2019-04-25T07:21:54.196Z,84.47
2019-04-25T07:24:21.177Z,90.28
2019-04-25T07:27:03.793Z,75.15
2019-04-25T07:29:33.729Z,75.80
2019-04-25T07:32:19.817Z,72.08
2019-04-25T07:34:47.150Z,54.77
2019-04-25T07:37:14.182Z,75.72
2019-04-25T07:39:41.345Z,69.75
2019-04-25T07:42:08.384Z,66.87
2019-04-25T07:44:49.356Z,66.82
2019-04-25T07:47:04.437Z,72.47
2019-04-25T07:49:33.063Z,66.02
2019-04-25T07:52:00.423Z,60.12
2019-04-25T07:54:27.903Z,48.98
2019-04-25T07:56:55.945Z,49.30
2019-04-25T07:59:23.745Z,39.33
2019-04-25T08:01:50.875Z,45.95
2019-04-25T08:04:18.383Z,42.38
2019-04-25T08:06:45.402Z,42.75
2019-04-25T08:09:15.441Z,44.80
2019-04-25T08:11:41.228Z,36.70
2019-04-25T08:14:25.212Z,36.00
2019-04-25T08:17:09.451Z,34.37
2019-04-25T08:19:37.393Z,34.35
2019-04-25T08:22:04.865Z,23.98
2019-04-25T08:24:34.861Z,30.32
2019-04-25T08:27:04.309Z,23.18
2019-04-25T08:29:31.814Z,15.80
2019-04-25T08:31:59.054Z,18.20
2019-04-25T08:34:27.079Z,20.88
2019-04-25T08:36:54.389Z,20.12
2019-04-25T08:39:21.625Z,17.48
2019-04-25T08:41:48.773Z,15.30
2019-04-25T08:44:15.957Z,16.02
2019-04-25T08:46:44.194Z,16.10
2019-04-25T08:49:16.529Z,14.18
2019-04-25T08:51:44.830Z,15.03
2019-04-25T08:54:25.610Z,13.20
2019-04-25T08:56:55.304Z,16.73
2019-04-25T08:59:44.609Z,13.55
2019-04-25T09:02:10.093Z,10.68
2019-04-25T09:04:41.513Z,10.72
2019-04-25T09:07:08.537Z,9.50
2019-04-25T09:09:37.773Z,8.88
2019-04-25T09:12:04.975Z,8.15
2019-04-25T09:14:32.413Z,9.83
2019-04-25T09:17:00.241Z,9.95
2019-04-25T09:19:27.282Z,7.05
2019-04-25T09:21:54.317Z,7.42
2019-04-25T09:24:21.581Z,3.15
2019-04-25T09:26:48.580Z,3.17
2019-04-25T09:29:19.402Z,4.45
2019-04-25T09:31:45.200Z,6.00
2019-04-25T09:34:13.977Z,2.75
2019-04-25T09:36:41.867Z,4.22
2019-04-25T09:39:11.449Z,3.58
2019-04-25T09:41:38.470Z,2.35
2019-04-25T09:44:07.381Z,3.05
2019-04-25T09:46:37.277Z,3.27
2019-04-25T09:49:06.430Z,2.77
2019-04-25T09:51:37.509Z,4.10
2019-04-25T09:54:23.729Z,1.85
2019-04-25T09:57:11.145Z,2.02
2019-04-25T09:59:39.330Z,5.17
2019-04-25T10:02:06.949Z,3.90
2019-04-25T10:04:34.668Z,2.55
2019-04-25T10:07:03.420Z,3.25
2019-04-25T10:09:30.628Z,2.95
2019-04-25T10:11:57.765Z,2.35
2019-04-25T10:14:34.639Z,3.85
2019-04-25T10:17:01.732Z,3.40
2019-04-25T10:19:28.843Z,3.70
2019-04-25T10:21:55.907Z,4.40
2019-04-25T10:24:23.071Z,2.87
2019-04-25T10:26:50.240Z,2.33
2019-04-25T10:29:17.321Z,3.37
2019-04-25T10:31:45.202Z,3.75
2019-04-25T10:34:13.996Z,2.37
2019-04-25T10:36:42.218Z,2.50
2019-04-25T10:39:11.216Z,3.85
2019-04-25T10:41:39.944Z,2.05
2019-04-25T10:44:09.950Z,3.52
2019-04-25T10:46:37.129Z,3.02
2019-04-25T10:49:04.483Z,2.98
2019-04-25T10:51:31.834Z,1.57
2019-04-25T10:53:58.978Z,2.87
2019-04-25T10:56:25.989Z,3.05
2019-04-25T10:58:54.828Z,4.30
2019-04-25T11:01:22.233Z,2.27
2019-04-25T11:03:54.426Z,3.60
2019-04-25T11:06:24.533Z,3.27
2019-04-25T11:08:51.630Z,9.43
2019-04-25T11:11:18.617Z,14.80
2019-04-25T11:13:46.612Z,18.27
2019-04-25T11:16:14.026Z,24.52
2019-04-25T11:18:41.826Z,16.65
2019-04-25T11:21:09.580Z,17.98
2019-04-25T11:23:36.805Z,9.15
2019-04-25T11:26:03.964Z,13.08
2019-04-25T11:28:31.315Z,14.43
2019-04-25T11:30:58.588Z,16.15
2019-04-25T11:33:26.327Z,13.72
2019-04-25T11:35:55.994Z,10.32
2019-04-25T11:38:27.398Z,11.70
2019-04-25T11:40:59.191Z,8.93
2019-04-25T11:43:26.393Z,6.20
2019-04-25T11:45:54.061Z,9.48
2019-04-25T11:48:23.817Z,12.23
2019-04-25T11:50:52.301Z,6.47
2019-04-25T11:53:20.185Z,10.68
2019-04-25T11:55:48.174Z,8.40
2019-04-25T11:58:16.222Z,5.62
2019-04-25T12:00:45.106Z,6.25
2019-04-25T12:03:13.344Z,8.15
2019-04-25T12:05:40.379Z,6.42
2019-04-25T12:08:08.525Z,9.00
2019-04-25T12:10:35.838Z,6.40
2019-04-25T12:13:03.017Z,11.57
2019-04-25T12:15:30.150Z,8.45
2019-04-25T12:17:57.576Z,14.70
2019-04-25T12:20:24.961Z,10.60
2019-04-25T12:23:04.186Z,12.20
2019-04-25T12:25:20.934Z,13.95
2019-04-25T12:27:49.789Z,10.10
2019-04-25T12:30:17.281Z,12.33
2019-04-25T12:32:46.400Z,11.55
2019-04-25T12:35:14.225Z,11.08
2019-04-25T12:37:41.493Z,14.15
2019-04-25T12:40:09.192Z,19.17
2019-04-25T12:42:36.199Z,15.60
2019-04-25T12:45:06.605Z,14.73
2019-04-25T12:47:50.850Z,11.33
2019-04-25T12:50:18.780Z,13.13
2019-04-25T12:52:46.616Z,20.37
2019-04-25T12:55:16.182Z,19.40
2019-04-25T12:57:43.185Z,21.23
2019-04-25T13:00:13.959Z,26.62
2019-04-25T13:02:41.075Z,26.17
2019-04-25T13:05:08.281Z,27.70
2019-04-25T13:07:37.267Z,24.70
2019-04-25T13:10:06.498Z,27.95
2019-04-25T13:12:33.573Z,20.92
2019-04-25T13:15:00.771Z,21.35
2019-04-25T13:17:27.862Z,16.87
2019-04-25T13:19:56.628Z,17.85
2019-04-25T13:22:24.201Z,12.55
2019-04-25T13:24:56.871Z,14.98
2019-04-25T13:27:25.866Z,25.77
2019-04-25T13:29:59.585Z,18.40
2019-04-25T13:32:32.304Z,11.70
2019-04-25T13:35:01.289Z,14.63
2019-04-25T13:37:28.428Z,15.32
2019-04-25T13:39:55.562Z,14.58
2019-04-25T13:42:23.281Z,11.63
2019-04-25T13:44:50.674Z,10.28
2019-04-25T13:47:18.171Z,15.08
2019-04-25T13:49:45.294Z,20.40
2019-04-25T13:52:12.593Z,17.25
2019-04-25T13:54:39.817Z,16.17
2019-04-25T13:57:06.997Z,19.98
2019-04-25T13:59:34.100Z,16.45
2019-04-25T14:02:04.106Z,15.35
2019-04-25T14:04:31.554Z,14.68
2019-04-25T14:06:58.664Z,12.28
2019-04-25T14:09:27.139Z,13.43
2019-04-25T14:11:54.454Z,11.38
2019-04-25T14:14:22.598Z,15.20
2019-04-25T14:16:57.721Z,17.48
2019-04-25T14:19:44.342Z,17.17
2019-04-25T14:22:11.443Z,12.88
2019-04-25T14:24:38.633Z,16.02
2019-04-25T14:27:06.407Z,18.32
2019-04-25T14:29:33.493Z,21.25
2019-04-25T14:32:01.118Z,22.42
2019-04-25T14:34:28.182Z,20.45
2019-04-25T14:36:55.491Z,18.65
2019-04-25T14:39:23.614Z,15.90
2019-04-25T14:41:50.841Z,20.43
2019-04-25T14:44:17.953Z,17.98
2019-04-25T14:46:45.924Z,18.35
2019-04-25T14:49:13.077Z,19.30
2019-04-25T14:51:40.161Z,21.15
2019-04-25T14:54:09.094Z,20.88
2019-04-25T14:56:40.415Z,19.07
2019-04-25T14:59:07.942Z,19.98
2019-04-25T15:01:44.628Z,19.00
2019-04-25T15:04:03.834Z,19.45
2019-04-25T15:06:30.818Z,17.73
2019-04-25T15:08:57.953Z,27.35
2019-04-25T15:11:24.938Z,24.60
2019-04-25T15:13:52.132Z,15.40
2019-04-25T15:16:19.208Z,21.17
2019-04-25T15:18:47.145Z,30.10
2019-04-25T15:21:14.222Z,19.25
2019-04-25T15:23:41.237Z,25.85
2019-04-25T15:26:08.261Z,32.93
2019-04-25T15:28:36.343Z,22.58
2019-04-25T15:31:03.638Z,28.45
2019-04-25T15:33:31.721Z,24.02
2019-04-25T15:36:07.644Z,31.23
2019-04-25T15:38:45.498Z,27.87
2019-04-25T15:41:15.281Z,24.30
2019-04-25T15:43:59.034Z,18.60
2019-04-25T15:46:28.910Z,21.40
2019-04-25T15:48:56.150Z,17.00
2019-04-25T15:51:23.229Z,21.77
2019-04-25T15:53:52.653Z,17.40
2019-04-25T15:56:19.853Z,12.80
2019-04-25T15:58:47.001Z,14.55
2019-04-25T16:01:14.161Z,17.10
2019-04-25T16:03:41.426Z,14.20
2019-04-25T16:06:08.478Z,19.92
2019-04-25T16:08:35.616Z,27.05
2019-04-25T16:11:02.725Z,30.02
2019-04-25T16:13:32.278Z,20.12
2019-04-25T16:15:59.428Z,16.70
2019-04-25T16:18:27.315Z,22.37
2019-04-25T16:20:55.530Z,20.75
2019-04-25T16:23:22.589Z,17.85
2019-04-25T16:25:49.684Z,22.62
2019-04-25T16:28:16.818Z,16.70
2019-04-25T16:30:43.856Z,29.50
2019-04-25T16:33:13.470Z,23.00
2019-04-25T16:35:40.702Z,21.85
2019-04-25T16:38:07.942Z,16.95
2019-04-25T16:40:34.963Z,14.10
2019-04-25T16:43:04.046Z,23.60
2019-04-25T16:45:31.608Z,13.38
2019-04-25T16:47:58.671Z,13.22
2019-04-25T16:50:25.754Z,13.90
2019-04-25T16:52:52.826Z,18.85
2019-04-25T16:55:19.954Z,15.65
2019-04-25T16:57:47.110Z,27.93
2019-04-25T17:00:32.575Z,20.05
2019-04-25T17:02:59.549Z,20.43
2019-04-25T17:05:26.710Z,15.72
2019-04-25T17:07:53.814Z,24.87
2019-04-25T17:10:20.907Z,18.25
2019-04-25T17:12:50.120Z,20.62
2019-04-25T17:15:18.962Z,25.45
2019-04-25T17:17:53.838Z,15.78
2019-04-25T17:20:22.733Z,15.63
2019-04-25T17:22:49.764Z,16.30
2019-04-25T17:25:17.205Z,12.28
2019-04-25T17:27:44.269Z,8.28
2019-04-25T17:30:11.616Z,7.35
2019-04-25T17:32:56.632Z,9.33
2019-04-25T17:35:37.397Z,6.95
2019-04-25T17:38:15.246Z,3.55
2019-04-25T17:40:42.329Z,4.70
2019-04-25T17:43:11.209Z,6.92
2019-04-25T17:45:39.318Z,3.95
2019-04-25T17:48:06.397Z,2.65
2019-04-25T17:50:34.210Z,4.22
2019-04-25T17:53:01.537Z,5.20
2019-04-25T17:55:28.665Z,5.70
2019-04-25T17:57:55.774Z,4.65
2019-04-25T18:00:24.770Z,3.33
2019-04-25T18:02:58.694Z,4.75
2019-04-25T18:05:21.069Z,8.13
2019-04-25T18:07:48.251Z,14.28
2019-04-25T18:10:15.388Z,18.98
2019-04-25T18:12:42.393Z,33.95
2019-04-25T18:15:11.637Z,56.05
2019-04-25T18:17:39.073Z,96.08
2019-04-25T18:20:15.694Z,152.80
2019-04-25T18:22:47.702Z,178.60
2019-04-25T18:25:19.519Z,139.90
2019-04-25T18:27:48.409Z,115.90
2019-04-25T18:30:15.519Z,105.43
2019-04-25T18:32:45.613Z,88.75
2019-04-25T18:35:20.426Z,53.08
2019-04-25T18:37:56.298Z,52.83
2019-04-25T18:40:37.805Z,53.80
2019-04-25T18:43:07.039Z,58.33
2019-04-25T18:45:37.000Z,80.57
2019-04-25T18:48:05.688Z,152.68
2019-04-25T18:50:33.523Z,77.37
2019-04-25T18:53:08.320Z,108.87
2019-04-25T18:55:50.748Z,82.10
2019-04-25T18:58:37.562Z,152.20
2019-04-25T19:01:25.735Z,386.75
2019-04-25T19:03:57.697Z,291.57
2019-04-25T19:06:26.683Z,328.70
2019-04-25T19:08:54.084Z,248.93
2019-04-25T19:11:21.587Z,299.52
2019-04-25T19:13:48.699Z,225.82
2019-04-25T19:16:16.018Z,143.87
2019-04-25T19:18:45.433Z,140.43
2019-04-25T19:21:12.705Z,149.72
2019-04-25T19:23:41.804Z,214.02
2019-04-25T19:26:12.401Z,208.07
2019-04-25T19:28:40.100Z,239.53
2019-04-25T19:31:09.046Z,211.07
2019-04-25T19:33:37.081Z,230.30
2019-04-25T19:36:04.057Z,361.87
2019-04-25T19:38:32.735Z,244.07
2019-04-25T19:41:01.768Z,160.90
2019-04-25T19:43:40.974Z,264.82
2019-04-25T19:46:08.065Z,292.35
2019-04-25T19:48:35.451Z,300.55
2019-04-25T19:51:02.680Z,294.67
2019-04-25T19:53:32.266Z,344.43
2019-04-25T19:55:59.343Z,286.35
2019-04-25T19:58:26.589Z,335.90
2019-04-25T20:00:53.665Z,416.68
2019-04-25T20:03:22.870Z,355.23
2019-04-25T20:05:56.480Z,339.60
2019-04-25T20:08:44.836Z,442.60
2019-04-25T20:11:13.897Z,446.12
2019-04-25T20:13:41.147Z,428.45
2019-04-25T20:16:08.296Z,504.25
2019-04-25T20:18:35.827Z,432.23
2019-04-25T20:21:03.274Z,378.92
2019-04-25T20:23:32.684Z,373.52
2019-04-25T20:25:59.978Z,508.27
2019-04-25T20:28:29.062Z,376.80
2019-04-25T20:30:57.111Z,258.02
2019-04-25T20:33:24.297Z,234.35
2019-04-25T20:35:53.188Z,115.90
2019-04-25T20:38:22.682Z,118.50
2019-04-25T20:40:51.717Z,90.60
2019-04-25T20:43:19.019Z,110.75
2019-04-25T20:45:46.866Z,93.20
2019-04-25T20:48:15.010Z,102.42
2019-04-25T20:50:42.040Z,71.82
2019-04-25T20:53:09.130Z,74.70
2019-04-25T20:55:36.218Z,87.60
2019-04-25T20:58:03.267Z,86.42
2019-04-25T21:00:43.675Z,91.85
2019-04-25T21:03:10.867Z,60.20
2019-04-25T21:05:37.900Z,74.25
2019-04-25T21:08:05.058Z,63.52
2019-04-25T21:10:32.037Z,70.67
2019-04-25T21:12:59.087Z,65.52
2019-04-25T21:15:31.157Z,63.23
2019-04-25T21:18:05.910Z,88.05
2019-04-25T21:20:32.983Z,75.05
2019-04-25T21:23:00.058Z,64.67
2019-04-25T21:25:27.079Z,65.62
2019-04-25T21:27:54.501Z,69.35
2019-04-25T21:30:21.601Z,54.53
2019-04-25T21:32:50.542Z,55.80
2019-04-25T21:35:19.753Z,59.20
2019-04-25T21:37:46.796Z,44.13
2019-04-25T21:40:16.729Z,57.08
2019-04-25T21:42:45.980Z,61.18
2019-04-25T21:45:13.441Z,57.93
2019-04-25T21:47:40.526Z,60.35
2019-04-25T21:50:08.266Z,54.98
2019-04-25T21:52:35.614Z,44.67
2019-04-25T21:55:04.662Z,56.55
2019-04-25T21:57:32.042Z,53.70
2019-04-25T22:00:06.115Z,47.60
2019-04-25T22:02:30.758Z,41.95
2019-04-25T22:04:58.550Z,49.25
2019-04-25T22:07:25.987Z,50.40
2019-04-25T22:09:53.302Z,41.00
2019-04-25T22:12:20.342Z,44.33
2019-04-25T22:14:47.333Z,45.12
2019-04-25T22:17:14.474Z,36.50
2019-04-25T22:19:41.908Z,30.72
2019-04-25T22:22:09.328Z,46.08
2019-04-25T22:24:36.452Z,27.35
2019-04-25T22:27:05.410Z,34.83
2019-04-25T22:29:34.301Z,30.62
2019-04-25T22:32:20.078Z,31.10
2019-04-25T22:35:05.922Z,29.23
2019-04-25T22:37:32.957Z,21.95
2019-04-25T22:40:01.232Z,20.88
2019-04-25T22:42:28.301Z,37.98
2019-04-25T22:44:55.387Z,24.87
2019-04-25T22:47:22.402Z,30.57
2019-04-25T22:49:49.461Z,44.65
2019-04-25T22:52:16.838Z,34.23
2019-04-25T22:54:44.273Z,41.05
2019-04-25T22:57:12.602Z,45.38
2019-04-25T22:59:40.469Z,52.40
2019-04-25T23:02:10.133Z,43.98
2019-04-25T23:04:41.937Z,56.00
2019-04-25T23:07:15.891Z,51.80
2019-04-25T23:09:43.313Z,46.68
2019-04-25T23:12:10.674Z,67.78
2019-04-25T23:14:38.033Z,47.43
2019-04-25T23:17:05.124Z,52.45
2019-04-25T23:19:32.200Z,61.13
2019-04-25T23:22:00.337Z,69.53
2019-04-25T23:24:29.288Z,60.58
2019-04-25T23:27:05.164Z,72.87
2019-04-25T23:29:33.101Z,59.50
2019-04-25T23:32:00.085Z,78.00
2019-04-25T23:34:27.540Z,55.33
2019-04-25T23:36:54.566Z,54.50
2019-04-25T23:39:22.017Z,80.85
2019-04-25T23:41:49.513Z,66.47
2019-04-25T23:44:16.558Z,57.05
2019-04-25T23:46:44.902Z,64.47
2019-04-25T23:49:12.717Z,61.48
2019-04-25T23:51:39.848Z,57.60
2019-04-25T23:54:07.598Z,63.30
2019-04-25T23:56:34.838Z,58.75
2019-04-25T23:59:02.608Z,64.20
